sensor_id;sensor_type;location;lat;lon;timestamp;P1;durP1;ratioP1;P2;durP2;ratioP2
75087;SDS011;63664;44.868;40.600;2023-07-16T00:00:50;6.85;;;3.55;;
75087;SDS011;63664;44.868;40.600;2023-07-16T00:03:17;6.60;;;3.30;;
75087;SDS011;63664;44.868;40.600;2023-07-16T00:05:43;4.80;;;3.63;;
75087;SDS011;63664;44.868;40.600;2023-07-16T00:08:09;4.50;;;3.25;;
75087;SDS011;63664;44.868;40.600;2023-07-16T00:10:36;9.70;;;3.70;;
75087;SDS011;63664;44.868;40.600;2023-07-16T00:13:03;6.38;;;3.08;;
75087;SDS011;63664;44.868;40.600;2023-07-16T00:15:30;7.20;;;3.40;;
75087;SDS011;63664;44.868;40.600;2023-07-16T00:17:56;5.65;;;3.55;;
75087;SDS011;63664;44.868;40.600;2023-07-16T00:20:22;4.57;;;3.35;;
75087;SDS011;63664;44.868;40.600;2023-07-16T00:22:51;4.63;;;3.25;;
75087;SDS011;63664;44.868;40.600;2023-07-16T00:25:22;6.15;;;3.15;;
75087;SDS011;63664;44.868;40.600;2023-07-16T00:27:48;5.03;;;3.60;;
75087;SDS011;63664;44.868;40.600;2023-07-16T00:30:15;5.57;;;3.30;;
75087;SDS011;63664;44.868;40.600;2023-07-16T00:32:41;8.35;;;3.13;;
75087;SDS011;63664;44.868;40.600;2023-07-16T00:35:07;4.88;;;3.10;;
75087;SDS011;63664;44.868;40.600;2023-07-16T00:37:34;4.43;;;2.92;;
75087;SDS011;63664;44.868;40.600;2023-07-16T00:40:01;4.15;;;3.05;;
75087;SDS011;63664;44.868;40.600;2023-07-16T00:42:28;5.90;;;3.28;;
75087;SDS011;63664;44.868;40.600;2023-07-16T00:44:54;6.30;;;3.65;;
75087;SDS011;63664;44.868;40.600;2023-07-16T00:47:21;5.93;;;4.00;;
75087;SDS011;63664;44.868;40.600;2023-07-16T00:49:51;4.75;;;3.15;;
75087;SDS011;63664;44.868;40.600;2023-07-16T00:52:19;4.63;;;3.42;;
75087;SDS011;63664;44.868;40.600;2023-07-16T00:54:49;5.47;;;3.40;;
75087;SDS011;63664;44.868;40.600;2023-07-16T00:57:16;5.82;;;3.35;;
75087;SDS011;63664;44.868;40.600;2023-07-16T00:59:42;5.88;;;3.20;;
75087;SDS011;63664;44.868;40.600;2023-07-16T01:02:09;4.43;;;3.05;;
75087;SDS011;63664;44.868;40.600;2023-07-16T01:04:35;5.65;;;3.38;;
75087;SDS011;63664;44.868;40.600;2023-07-16T01:07:02;6.65;;;3.35;;
75087;SDS011;63664;44.868;40.600;2023-07-16T01:09:36;4.63;;;3.10;;
75087;SDS011;63664;44.868;40.600;2023-07-16T01:12:08;5.75;;;3.13;;
75087;SDS011;63664;44.868;40.600;2023-07-16T01:14:35;5.07;;;3.28;;
75087;SDS011;63664;44.868;40.600;2023-07-16T01:17:03;4.20;;;3.13;;
75087;SDS011;63664;44.868;40.600;2023-07-16T01:19:35;4.18;;;3.10;;
75087;SDS011;63664;44.868;40.600;2023-07-16T01:30:23;5.38;;;3.28;;
75087;SDS011;63664;44.868;40.600;2023-07-16T01:32:51;5.60;;;3.40;;
75087;SDS011;63664;44.868;40.600;2023-07-16T01:35:18;4.93;;;3.35;;
75087;SDS011;63664;44.868;40.600;2023-07-16T01:37:45;4.55;;;2.95;;
75087;SDS011;63664;44.868;40.600;2023-07-16T01:40:11;4.88;;;3.15;;
75087;SDS011;63664;44.868;40.600;2023-07-16T01:42:39;5.88;;;2.72;;
75087;SDS011;63664;44.868;40.600;2023-07-16T01:45:06;4.22;;;2.67;;
75087;SDS011;63664;44.868;40.600;2023-07-16T01:50:37;6.93;;;3.58;;
75087;SDS011;63664;44.868;40.600;2023-07-16T01:55:33;5.85;;;3.30;;
75087;SDS011;63664;44.868;40.600;2023-07-16T01:57:59;4.13;;;3.20;;
75087;SDS011;63664;44.868;40.600;2023-07-16T02:00:25;7.93;;;3.50;;
75087;SDS011;63664;44.868;40.600;2023-07-16T02:02:52;6.53;;;3.28;;
75087;SDS011;63664;44.868;40.600;2023-07-16T02:05:18;5.97;;;3.60;;
75087;SDS011;63664;44.868;40.600;2023-07-16T02:07:44;4.68;;;3.15;;
75087;SDS011;63664;44.868;40.600;2023-07-16T02:10:13;3.67;;;3.05;;
75087;SDS011;63664;44.868;40.600;2023-07-16T02:12:39;3.83;;;2.95;;
75087;SDS011;63664;44.868;40.600;2023-07-16T02:15:06;4.10;;;3.08;;
75087;SDS011;63664;44.868;40.600;2023-07-16T02:17:36;5.55;;;3.38;;
75087;SDS011;63664;44.868;40.600;2023-07-16T02:20:02;4.40;;;2.95;;
75087;SDS011;63664;44.868;40.600;2023-07-16T02:22:33;6.43;;;3.13;;
75087;SDS011;63664;44.868;40.600;2023-07-16T02:25:01;4.25;;;3.08;;
75087;SDS011;63664;44.868;40.600;2023-07-16T02:27:28;4.18;;;3.03;;
75087;SDS011;63664;44.868;40.600;2023-07-16T02:29:54;5.30;;;3.08;;
75087;SDS011;63664;44.868;40.600;2023-07-16T02:32:21;6.22;;;3.35;;
75087;SDS011;63664;44.868;40.600;2023-07-16T02:34:47;5.40;;;3.22;;
75087;SDS011;63664;44.868;40.600;2023-07-16T02:37:14;4.43;;;2.90;;
75087;SDS011;63664;44.868;40.600;2023-07-16T02:39:44;5.55;;;2.97;;
75087;SDS011;63664;44.868;40.600;2023-07-16T02:42:14;5.95;;;3.75;;
75087;SDS011;63664;44.868;40.600;2023-07-16T02:44:40;4.72;;;3.40;;
75087;SDS011;63664;44.868;40.600;2023-07-16T02:47:13;6.82;;;3.08;;
75087;SDS011;63664;44.868;40.600;2023-07-16T02:49:39;3.67;;;2.72;;
75087;SDS011;63664;44.868;40.600;2023-07-16T02:52:06;5.70;;;3.47;;
75087;SDS011;63664;44.868;40.600;2023-07-16T02:54:33;4.78;;;3.45;;
75087;SDS011;63664;44.868;40.600;2023-07-16T02:57:01;4.75;;;3.28;;
75087;SDS011;63664;44.868;40.600;2023-07-16T02:59:29;8.55;;;3.30;;
75087;SDS011;63664;44.868;40.600;2023-07-16T03:01:55;6.03;;;3.00;;
75087;SDS011;63664;44.868;40.600;2023-07-16T03:04:21;7.22;;;3.08;;
75087;SDS011;63664;44.868;40.600;2023-07-16T03:06:48;5.35;;;3.30;;
75087;SDS011;63664;44.868;40.600;2023-07-16T03:09:14;4.80;;;3.15;;
75087;SDS011;63664;44.868;40.600;2023-07-16T03:11:44;6.03;;;2.85;;
75087;SDS011;63664;44.868;40.600;2023-07-16T03:14:10;7.15;;;2.88;;
75087;SDS011;63664;44.868;40.600;2023-07-16T03:16:36;4.47;;;3.25;;
75087;SDS011;63664;44.868;40.600;2023-07-16T03:19:02;8.73;;;2.78;;
75087;SDS011;63664;44.868;40.600;2023-07-16T03:21:31;13.80;;;3.60;;
75087;SDS011;63664;44.868;40.600;2023-07-16T03:23:57;4.93;;;3.45;;
75087;SDS011;63664;44.868;40.600;2023-07-16T03:26:24;6.55;;;3.25;;
75087;SDS011;63664;44.868;40.600;2023-07-16T03:28:50;3.78;;;2.70;;
75087;SDS011;63664;44.868;40.600;2023-07-16T03:31:17;7.93;;;3.38;;
75087;SDS011;63664;44.868;40.600;2023-07-16T03:33:46;6.15;;;3.72;;
75087;SDS011;63664;44.868;40.600;2023-07-16T03:36:13;3.95;;;3.10;;
75087;SDS011;63664;44.868;40.600;2023-07-16T03:38:41;6.25;;;3.30;;
75087;SDS011;63664;44.868;40.600;2023-07-16T03:41:07;7.03;;;3.10;;
75087;SDS011;63664;44.868;40.600;2023-07-16T03:43:34;8.90;;;3.90;;
75087;SDS011;63664;44.868;40.600;2023-07-16T03:46:15;5.18;;;3.50;;
75087;SDS011;63664;44.868;40.600;2023-07-16T03:48:41;7.20;;;3.20;;
75087;SDS011;63664;44.868;40.600;2023-07-16T03:51:10;6.60;;;2.92;;
75087;SDS011;63664;44.868;40.600;2023-07-16T03:53:38;8.73;;;3.88;;
75087;SDS011;63664;44.868;40.600;2023-07-16T03:56:04;5.75;;;3.47;;
75087;SDS011;63664;44.868;40.600;2023-07-16T03:58:31;4.10;;;3.30;;
75087;SDS011;63664;44.868;40.600;2023-07-16T04:01:04;6.78;;;3.60;;
75087;SDS011;63664;44.868;40.600;2023-07-16T04:03:31;4.43;;;3.10;;
75087;SDS011;63664;44.868;40.600;2023-07-16T04:06:09;7.10;;;3.65;;
75087;SDS011;63664;44.868;40.600;2023-07-16T04:08:39;6.60;;;3.58;;
75087;SDS011;63664;44.868;40.600;2023-07-16T04:11:06;9.93;;;3.50;;
75087;SDS011;63664;44.868;40.600;2023-07-16T04:13:32;3.40;;;3.05;;
75087;SDS011;63664;44.868;40.600;2023-07-16T04:15:59;5.30;;;3.30;;
75087;SDS011;63664;44.868;40.600;2023-07-16T04:18:25;4.60;;;3.22;;
75087;SDS011;63664;44.868;40.600;2023-07-16T04:20:52;7.53;;;4.20;;
75087;SDS011;63664;44.868;40.600;2023-07-16T04:23:20;5.78;;;3.30;;
75087;SDS011;63664;44.868;40.600;2023-07-16T04:25:46;4.07;;;3.22;;
75087;SDS011;63664;44.868;40.600;2023-07-16T04:28:17;5.28;;;2.65;;
75087;SDS011;63664;44.868;40.600;2023-07-16T04:30:43;5.72;;;3.45;;
75087;SDS011;63664;44.868;40.600;2023-07-16T04:33:09;5.55;;;3.10;;
75087;SDS011;63664;44.868;40.600;2023-07-16T04:35:38;7.38;;;3.30;;
75087;SDS011;63664;44.868;40.600;2023-07-16T04:38:05;4.00;;;3.17;;
75087;SDS011;63664;44.868;40.600;2023-07-16T04:40:33;8.35;;;2.78;;
75087;SDS011;63664;44.868;40.600;2023-07-16T04:42:59;4.70;;;2.72;;
75087;SDS011;63664;44.868;40.600;2023-07-16T04:45:26;5.43;;;2.60;;
75087;SDS011;63664;44.868;40.600;2023-07-16T04:47:52;3.08;;;2.47;;
75087;SDS011;63664;44.868;40.600;2023-07-16T04:50:18;5.53;;;3.78;;
75087;SDS011;63664;44.868;40.600;2023-07-16T04:52:45;5.10;;;2.55;;
75087;SDS011;63664;44.868;40.600;2023-07-16T04:55:11;3.80;;;3.10;;
75087;SDS011;63664;44.868;40.600;2023-07-16T04:57:37;5.28;;;2.60;;
75087;SDS011;63664;44.868;40.600;2023-07-16T05:00:08;6.00;;;2.60;;
75087;SDS011;63664;44.868;40.600;2023-07-16T05:02:34;7.85;;;3.28;;
75087;SDS011;63664;44.868;40.600;2023-07-16T05:05:01;6.65;;;2.60;;
75087;SDS011;63664;44.868;40.600;2023-07-16T05:07:28;6.18;;;2.80;;
75087;SDS011;63664;44.868;40.600;2023-07-16T05:09:54;6.18;;;2.67;;
75087;SDS011;63664;44.868;40.600;2023-07-16T05:12:20;4.50;;;2.50;;
75087;SDS011;63664;44.868;40.600;2023-07-16T05:14:49;8.50;;;2.70;;
75087;SDS011;63664;44.868;40.600;2023-07-16T05:17:17;3.42;;;2.05;;
75087;SDS011;63664;44.868;40.600;2023-07-16T05:19:43;5.18;;;2.78;;
75087;SDS011;63664;44.868;40.600;2023-07-16T05:22:10;4.35;;;2.25;;
75087;SDS011;63664;44.868;40.600;2023-07-16T05:24:36;6.00;;;2.50;;
75087;SDS011;63664;44.868;40.600;2023-07-16T05:27:05;4.30;;;2.30;;
75087;SDS011;63664;44.868;40.600;2023-07-16T05:29:32;2.97;;;2.28;;
75087;SDS011;63664;44.868;40.600;2023-07-16T05:31:58;5.47;;;2.38;;
75087;SDS011;63664;44.868;40.600;2023-07-16T05:34:24;2.67;;;2.00;;
75087;SDS011;63664;44.868;40.600;2023-07-16T05:36:53;5.78;;;2.75;;
75087;SDS011;63664;44.868;40.600;2023-07-16T05:39:21;4.85;;;2.13;;
75087;SDS011;63664;44.868;40.600;2023-07-16T05:41:47;3.17;;;2.10;;
75087;SDS011;63664;44.868;40.600;2023-07-16T05:44:17;2.50;;;1.85;;
75087;SDS011;63664;44.868;40.600;2023-07-16T05:46:45;5.00;;;2.10;;
75087;SDS011;63664;44.868;40.600;2023-07-16T05:49:15;3.10;;;2.00;;
75087;SDS011;63664;44.868;40.600;2023-07-16T05:51:41;2.28;;;1.48;;
75087;SDS011;63664;44.868;40.600;2023-07-16T05:54:07;13.05;;;2.00;;
75087;SDS011;63664;44.868;40.600;2023-07-16T05:56:33;2.83;;;2.10;;
75087;SDS011;63664;44.868;40.600;2023-07-16T05:59:00;5.00;;;1.85;;
75087;SDS011;63664;44.868;40.600;2023-07-16T06:01:26;7.35;;;2.42;;
75087;SDS011;63664;44.868;40.600;2023-07-16T06:03:55;3.35;;;1.50;;
75087;SDS011;63664;44.868;40.600;2023-07-16T06:06:21;2.13;;;1.30;;
75087;SDS011;63664;44.868;40.600;2023-07-16T06:08:48;2.20;;;1.40;;
75087;SDS011;63664;44.868;40.600;2023-07-16T06:11:16;2.85;;;1.27;;
75087;SDS011;63664;44.868;40.600;2023-07-16T06:16:12;4.35;;;2.15;;
75087;SDS011;63664;44.868;40.600;2023-07-16T06:18:39;6.88;;;1.60;;
75087;SDS011;63664;44.868;40.600;2023-07-16T06:21:05;1.55;;;1.30;;
75087;SDS011;63664;44.868;40.600;2023-07-16T06:23:36;2.17;;;1.40;;
75087;SDS011;63664;44.868;40.600;2023-07-16T06:28:29;1.92;;;1.40;;
75087;SDS011;63664;44.868;40.600;2023-07-16T06:30:56;2.63;;;1.58;;
75087;SDS011;63664;44.868;40.600;2023-07-16T06:33:22;3.60;;;1.55;;
75087;SDS011;63664;44.868;40.600;2023-07-16T06:35:48;5.20;;;1.58;;
75087;SDS011;63664;44.868;40.600;2023-07-16T06:38:15;3.22;;;1.50;;
75087;SDS011;63664;44.868;40.600;2023-07-16T06:40:48;6.28;;;1.27;;
75087;SDS011;63664;44.868;40.600;2023-07-16T06:43:18;2.75;;;1.15;;
75087;SDS011;63664;44.868;40.600;2023-07-16T06:45:50;2.33;;;1.23;;
75087;SDS011;63664;44.868;40.600;2023-07-16T06:48:16;4.10;;;1.35;;
75087;SDS011;63664;44.868;40.600;2023-07-16T06:50:43;2.45;;;1.42;;
75087;SDS011;63664;44.868;40.600;2023-07-16T06:53:12;1.17;;;1.02;;
75087;SDS011;63664;44.868;40.600;2023-07-16T06:55:38;1.35;;;1.05;;
75087;SDS011;63664;44.868;40.600;2023-07-16T06:58:05;2.78;;;1.40;;
75087;SDS011;63664;44.868;40.600;2023-07-16T07:00:31;3.25;;;1.10;;
75087;SDS011;63664;44.868;40.600;2023-07-16T07:03:01;2.42;;;1.33;;
75087;SDS011;63664;44.868;40.600;2023-07-16T07:05:27;4.75;;;1.02;;
75087;SDS011;63664;44.868;40.600;2023-07-16T07:07:53;3.05;;;1.17;;
75087;SDS011;63664;44.868;40.600;2023-07-16T07:10:22;1.40;;;1.20;;
75087;SDS011;63664;44.868;40.600;2023-07-16T07:12:51;3.67;;;0.90;;
75087;SDS011;63664;44.868;40.600;2023-07-16T07:15:17;1.90;;;1.23;;
75087;SDS011;63664;44.868;40.600;2023-07-16T07:17:43;4.75;;;1.60;;
75087;SDS011;63664;44.868;40.600;2023-07-16T07:20:12;3.88;;;1.38;;
75087;SDS011;63664;44.868;40.600;2023-07-16T07:22:39;4.40;;;1.30;;
75087;SDS011;63664;44.868;40.600;2023-07-16T07:25:05;4.63;;;1.10;;
75087;SDS011;63664;44.868;40.600;2023-07-16T07:27:34;3.80;;;0.88;;
75087;SDS011;63664;44.868;40.600;2023-07-16T07:30:01;3.67;;;1.23;;
75087;SDS011;63664;44.868;40.600;2023-07-16T07:32:28;1.33;;;0.80;;
75087;SDS011;63664;44.868;40.600;2023-07-16T07:34:55;1.77;;;0.98;;
75087;SDS011;63664;44.868;40.600;2023-07-16T07:37:24;1.42;;;0.93;;
75087;SDS011;63664;44.868;40.600;2023-07-16T07:39:51;1.33;;;0.93;;
75087;SDS011;63664;44.868;40.600;2023-07-16T07:42:18;2.65;;;1.00;;
75087;SDS011;63664;44.868;40.600;2023-07-16T07:44:47;1.92;;;0.90;;
75087;SDS011;63664;44.868;40.600;2023-07-16T07:47:13;2.05;;;0.80;;
75087;SDS011;63664;44.868;40.600;2023-07-16T07:49:40;1.55;;;1.10;;
75087;SDS011;63664;44.868;40.600;2023-07-16T07:52:06;1.73;;;1.10;;
75087;SDS011;63664;44.868;40.600;2023-07-16T07:54:37;4.57;;;1.17;;
75087;SDS011;63664;44.868;40.600;2023-07-16T07:57:04;1.45;;;1.00;;
75087;SDS011;63664;44.868;40.600;2023-07-16T07:59:31;2.17;;;0.93;;
75087;SDS011;63664;44.868;40.600;2023-07-16T08:01:57;3.90;;;1.05;;
75087;SDS011;63664;44.868;40.600;2023-07-16T08:04:24;2.40;;;1.20;;
75087;SDS011;63664;44.868;40.600;2023-07-16T08:06:55;10.27;;;1.20;;
75087;SDS011;63664;44.868;40.600;2023-07-16T08:09:25;2.38;;;1.20;;
75087;SDS011;63664;44.868;40.600;2023-07-16T08:11:53;7.60;;;1.20;;
75087;SDS011;63664;44.868;40.600;2023-07-16T08:14:20;3.67;;;1.30;;
75087;SDS011;63664;44.868;40.600;2023-07-16T08:16:46;1.92;;;1.00;;
75087;SDS011;63664;44.868;40.600;2023-07-16T08:19:12;2.85;;;1.05;;
75087;SDS011;63664;44.868;40.600;2023-07-16T08:21:41;2.00;;;1.02;;
75087;SDS011;63664;44.868;40.600;2023-07-16T08:24:10;1.13;;;0.82;;
75087;SDS011;63664;44.868;40.600;2023-07-16T08:26:38;4.30;;;1.10;;
75087;SDS011;63664;44.868;40.600;2023-07-16T08:29:07;3.25;;;1.08;;
75087;SDS011;63664;44.868;40.600;2023-07-16T08:31:36;1.85;;;0.90;;
75087;SDS011;63664;44.868;40.600;2023-07-16T08:34:02;1.95;;;0.77;;
75087;SDS011;63664;44.868;40.600;2023-07-16T08:36:29;1.95;;;0.93;;
75087;SDS011;63664;44.868;40.600;2023-07-16T08:38:55;2.30;;;1.27;;
75087;SDS011;63664;44.868;40.600;2023-07-16T08:41:21;1.85;;;0.85;;
75087;SDS011;63664;44.868;40.600;2023-07-16T08:43:48;4.50;;;2.05;;
75087;SDS011;63664;44.868;40.600;2023-07-16T08:46:15;1.73;;;1.00;;
75087;SDS011;63664;44.868;40.600;2023-07-16T08:48:42;1.23;;;1.00;;
75087;SDS011;63664;44.868;40.600;2023-07-16T08:51:10;3.85;;;1.08;;
75087;SDS011;63664;44.868;40.600;2023-07-16T08:53:42;2.13;;;0.88;;
75087;SDS011;63664;44.868;40.600;2023-07-16T08:56:08;1.58;;;1.02;;
75087;SDS011;63664;44.868;40.600;2023-07-16T08:58:35;3.05;;;0.93;;
75087;SDS011;63664;44.868;40.600;2023-07-16T09:01:03;1.98;;;1.25;;
75087;SDS011;63664;44.868;40.600;2023-07-16T09:03:31;1.35;;;0.77;;
75087;SDS011;63664;44.868;40.600;2023-07-16T09:05:57;1.45;;;0.90;;
75087;SDS011;63664;44.868;40.600;2023-07-16T09:08:23;3.58;;;1.17;;
75087;SDS011;63664;44.868;40.600;2023-07-16T09:10:57;1.42;;;0.90;;
75087;SDS011;63664;44.868;40.600;2023-07-16T09:13:24;3.95;;;1.00;;
75087;SDS011;63664;44.868;40.600;2023-07-16T09:15:54;2.38;;;1.05;;
75087;SDS011;63664;44.868;40.600;2023-07-16T09:18:22;7.38;;;1.10;;
75087;SDS011;63664;44.868;40.600;2023-07-16T09:20:55;2.55;;;1.00;;
75087;SDS011;63664;44.868;40.600;2023-07-16T09:23:30;5.00;;;1.50;;
75087;SDS011;63664;44.868;40.600;2023-07-16T09:25:58;1.20;;;0.82;;
75087;SDS011;63664;44.868;40.600;2023-07-16T09:28:31;1.83;;;0.98;;
75087;SDS011;63664;44.868;40.600;2023-07-16T09:31:07;2.22;;;1.25;;
75087;SDS011;63664;44.868;40.600;2023-07-16T09:33:34;1.33;;;1.00;;
75087;SDS011;63664;44.868;40.600;2023-07-16T09:36:03;1.75;;;1.13;;
75087;SDS011;63664;44.868;40.600;2023-07-16T09:38:30;8.90;;;1.42;;
75087;SDS011;63664;44.868;40.600;2023-07-16T09:40:58;2.17;;;1.05;;
75087;SDS011;63664;44.868;40.600;2023-07-16T09:43:29;1.33;;;0.80;;
75087;SDS011;63664;44.868;40.600;2023-07-16T09:45:55;4.30;;;1.02;;
75087;SDS011;63664;44.868;40.600;2023-07-16T09:48:21;2.35;;;1.05;;
75087;SDS011;63664;44.868;40.600;2023-07-16T09:50:51;4.18;;;1.20;;
75087;SDS011;63664;44.868;40.600;2023-07-16T09:53:19;2.58;;;1.00;;
75087;SDS011;63664;44.868;40.600;2023-07-16T09:55:46;4.65;;;0.98;;
75087;SDS011;63664;44.868;40.600;2023-07-16T09:58:14;2.13;;;0.80;;
75087;SDS011;63664;44.868;40.600;2023-07-16T10:00:47;1.65;;;0.95;;
75087;SDS011;63664;44.868;40.600;2023-07-16T10:03:15;2.15;;;1.10;;
75087;SDS011;63664;44.868;40.600;2023-07-16T10:05:43;1.65;;;1.05;;
75087;SDS011;63664;44.868;40.600;2023-07-16T10:08:19;3.53;;;1.00;;
75087;SDS011;63664;44.868;40.600;2023-07-16T10:10:53;1.45;;;0.98;;
75087;SDS011;63664;44.868;40.600;2023-07-16T10:13:24;2.30;;;0.90;;
75087;SDS011;63664;44.868;40.600;2023-07-16T10:18:30;4.20;;;1.30;;
75087;SDS011;63664;44.868;40.600;2023-07-16T10:21:07;4.03;;;1.00;;
75087;SDS011;63664;44.868;40.600;2023-07-16T10:23:45;2.58;;;1.10;;
75087;SDS011;63664;44.868;40.600;2023-07-16T10:26:17;2.22;;;1.50;;
75087;SDS011;63664;44.868;40.600;2023-07-16T10:28:45;2.95;;;1.02;;
75087;SDS011;63664;44.868;40.600;2023-07-16T10:31:20;4.00;;;1.08;;
75087;SDS011;63664;44.868;40.600;2023-07-16T10:33:58;37.92;;;3.38;;
75087;SDS011;63664;44.868;40.600;2023-07-16T10:36:38;7.50;;;1.50;;
75087;SDS011;63664;44.868;40.600;2023-07-16T10:39:08;4.43;;;0.80;;
75087;SDS011;63664;44.868;40.600;2023-07-16T10:41:34;9.50;;;1.40;;
75087;SDS011;63664;44.868;40.600;2023-07-16T10:44:00;4.25;;;1.17;;
75087;SDS011;63664;44.868;40.600;2023-07-16T10:46:30;3.58;;;1.23;;
75087;SDS011;63664;44.868;40.600;2023-07-16T10:49:00;3.17;;;1.30;;
75087;SDS011;63664;44.868;40.600;2023-07-16T10:51:26;1.88;;;1.05;;
75087;SDS011;63664;44.868;40.600;2023-07-16T10:53:56;5.85;;;1.60;;
75087;SDS011;63664;44.868;40.600;2023-07-16T10:56:25;7.90;;;1.52;;
75087;SDS011;63664;44.868;40.600;2023-07-16T11:01:20;3.22;;;1.13;;
75087;SDS011;63664;44.868;40.600;2023-07-16T11:03:47;4.03;;;1.27;;
75087;SDS011;63664;44.868;40.600;2023-07-16T11:06:13;2.63;;;1.23;;
75087;SDS011;63664;44.868;40.600;2023-07-16T11:08:41;2.53;;;1.45;;
75087;SDS011;63664;44.868;40.600;2023-07-16T11:11:07;3.28;;;1.20;;
75087;SDS011;63664;44.868;40.600;2023-07-16T11:13:33;5.88;;;1.67;;
75087;SDS011;63664;44.868;40.600;2023-07-16T11:16:11;2.33;;;1.20;;
75087;SDS011;63664;44.868;40.600;2023-07-16T11:18:41;2.50;;;1.30;;
75087;SDS011;63664;44.868;40.600;2023-07-16T11:21:07;2.42;;;1.30;;
75087;SDS011;63664;44.868;40.600;2023-07-16T11:23:35;2.10;;;1.17;;
75087;SDS011;63664;44.868;40.600;2023-07-16T11:26:04;3.00;;;1.38;;
75087;SDS011;63664;44.868;40.600;2023-07-16T11:28:39;3.33;;;1.80;;
75087;SDS011;63664;44.868;40.600;2023-07-16T11:31:10;5.40;;;1.75;;
75087;SDS011;63664;44.868;40.600;2023-07-16T11:33:43;5.03;;;1.98;;
75087;SDS011;63664;44.868;40.600;2023-07-16T11:36:11;3.70;;;1.80;;
75087;SDS011;63664;44.868;40.600;2023-07-16T11:38:38;2.42;;;1.70;;
75087;SDS011;63664;44.868;40.600;2023-07-16T11:41:05;4.40;;;2.20;;
75087;SDS011;63664;44.868;40.600;2023-07-16T11:43:39;3.72;;;2.63;;
75087;SDS011;63664;44.868;40.600;2023-07-16T11:46:14;12.32;;;9.40;;
75087;SDS011;63664;44.868;40.600;2023-07-16T11:48:42;5.10;;;4.00;;
75087;SDS011;63664;44.868;40.600;2023-07-16T11:51:08;7.07;;;3.95;;
75087;SDS011;63664;44.868;40.600;2023-07-16T11:53:35;3.35;;;2.70;;
75087;SDS011;63664;44.868;40.600;2023-07-16T11:58:36;4.40;;;1.25;;
75087;SDS011;63664;44.868;40.600;2023-07-16T12:01:03;2.83;;;1.50;;
75087;SDS011;63664;44.868;40.600;2023-07-16T12:03:29;4.57;;;1.40;;
75087;SDS011;63664;44.868;40.600;2023-07-16T12:05:55;3.60;;;1.38;;
75087;SDS011;63664;44.868;40.600;2023-07-16T12:08:21;2.05;;;1.42;;
75087;SDS011;63664;44.868;40.600;2023-07-16T12:10:50;1.63;;;1.25;;
75087;SDS011;63664;44.868;40.600;2023-07-16T12:13:16;2.70;;;1.30;;
75087;SDS011;63664;44.868;40.600;2023-07-16T12:15:43;1.58;;;1.17;;
75087;SDS011;63664;44.868;40.600;2023-07-16T12:18:09;2.97;;;1.45;;
75087;SDS011;63664;44.868;40.600;2023-07-16T12:20:35;1.55;;;1.15;;
75087;SDS011;63664;44.868;40.600;2023-07-16T12:23:02;1.55;;;1.15;;
75087;SDS011;63664;44.868;40.600;2023-07-16T12:25:28;3.60;;;1.30;;
75087;SDS011;63664;44.868;40.600;2023-07-16T12:27:54;1.15;;;1.00;;
75087;SDS011;63664;44.868;40.600;2023-07-16T12:30:27;2.33;;;1.25;;
75087;SDS011;63664;44.868;40.600;2023-07-16T12:32:53;3.00;;;1.20;;
75087;SDS011;63664;44.868;40.600;2023-07-16T12:35:22;2.08;;;1.02;;
75087;SDS011;63664;44.868;40.600;2023-07-16T12:37:51;2.38;;;1.20;;
75087;SDS011;63664;44.868;40.600;2023-07-16T12:40:17;1.50;;;1.05;;
75087;SDS011;63664;44.868;40.600;2023-07-16T12:42:44;1.70;;;0.77;;
75087;SDS011;63664;44.868;40.600;2023-07-16T12:45:10;2.00;;;1.10;;
75087;SDS011;63664;44.868;40.600;2023-07-16T12:47:36;1.55;;;0.90;;
75087;SDS011;63664;44.868;40.600;2023-07-16T12:50:04;0.93;;;0.80;;
75087;SDS011;63664;44.868;40.600;2023-07-16T12:52:30;1.05;;;0.80;;
75087;SDS011;63664;44.868;40.600;2023-07-16T12:55:00;2.72;;;0.98;;
75087;SDS011;63664;44.868;40.600;2023-07-16T12:57:26;1.27;;;0.80;;
75087;SDS011;63664;44.868;40.600;2023-07-16T12:59:52;3.20;;;1.10;;
75087;SDS011;63664;44.868;40.600;2023-07-16T13:02:19;1.63;;;0.90;;
75087;SDS011;63664;44.868;40.600;2023-07-16T13:04:46;2.42;;;0.77;;
75087;SDS011;63664;44.868;40.600;2023-07-16T13:07:15;1.48;;;0.80;;
75087;SDS011;63664;44.868;40.600;2023-07-16T13:09:41;0.93;;;0.73;;
75087;SDS011;63664;44.868;40.600;2023-07-16T13:12:07;1.88;;;0.90;;
75087;SDS011;63664;44.868;40.600;2023-07-16T13:14:33;5.47;;;1.85;;
75087;SDS011;63664;44.868;40.600;2023-07-16T13:17:00;1.40;;;0.82;;
75087;SDS011;63664;44.868;40.600;2023-07-16T13:19:26;1.20;;;0.80;;
75087;SDS011;63664;44.868;40.600;2023-07-16T13:21:53;2.22;;;0.95;;
75087;SDS011;63664;44.868;40.600;2023-07-16T13:24:19;3.63;;;0.90;;
75087;SDS011;63664;44.868;40.600;2023-07-16T13:26:45;0.95;;;0.68;;
75087;SDS011;63664;44.868;40.600;2023-07-16T13:29:11;1.60;;;0.88;;
75087;SDS011;63664;44.868;40.600;2023-07-16T13:31:38;1.50;;;0.90;;
75087;SDS011;63664;44.868;40.600;2023-07-16T13:34:04;1.60;;;0.93;;
75087;SDS011;63664;44.868;40.600;2023-07-16T13:36:30;1.67;;;1.02;;
75087;SDS011;63664;44.868;40.600;2023-07-16T13:38:57;1.20;;;0.95;;
75087;SDS011;63664;44.868;40.600;2023-07-16T13:41:23;1.00;;;0.90;;
75087;SDS011;63664;44.868;40.600;2023-07-16T13:43:49;2.42;;;1.10;;
75087;SDS011;63664;44.868;40.600;2023-07-16T13:46:15;1.20;;;0.80;;
75087;SDS011;63664;44.868;40.600;2023-07-16T13:48:42;1.73;;;1.10;;
75087;SDS011;63664;44.868;40.600;2023-07-16T13:51:08;2.85;;;0.80;;
75087;SDS011;63664;44.868;40.600;2023-07-16T13:53:35;2.13;;;1.10;;
75087;SDS011;63664;44.868;40.600;2023-07-16T13:56:01;0.95;;;0.80;;
75087;SDS011;63664;44.868;40.600;2023-07-16T13:58:27;1.83;;;1.10;;
75087;SDS011;63664;44.868;40.600;2023-07-16T14:00:54;2.00;;;1.10;;
75087;SDS011;63664;44.868;40.600;2023-07-16T14:03:20;1.30;;;1.10;;
75087;SDS011;63664;44.868;40.600;2023-07-16T14:05:49;1.75;;;1.25;;
75087;SDS011;63664;44.868;40.600;2023-07-16T14:08:15;2.00;;;1.00;;
75087;SDS011;63664;44.868;40.600;2023-07-16T14:10:41;1.30;;;0.93;;
75087;SDS011;63664;44.868;40.600;2023-07-16T14:13:07;1.75;;;1.25;;
75087;SDS011;63664;44.868;40.600;2023-07-16T14:15:33;1.85;;;1.10;;
75087;SDS011;63664;44.868;40.600;2023-07-16T14:18:05;1.92;;;0.70;;
75087;SDS011;63664;44.868;40.600;2023-07-16T14:20:31;1.05;;;0.82;;
75087;SDS011;63664;44.868;40.600;2023-07-16T14:22:58;4.68;;;0.85;;
75087;SDS011;63664;44.868;40.600;2023-07-16T14:25:26;1.30;;;1.10;;
75087;SDS011;63664;44.868;40.600;2023-07-16T14:27:56;4.05;;;1.73;;
75087;SDS011;63664;44.868;40.600;2023-07-16T14:30:22;2.70;;;1.52;;
75087;SDS011;63664;44.868;40.600;2023-07-16T14:32:48;1.90;;;1.10;;
75087;SDS011;63664;44.868;40.600;2023-07-16T14:35:14;3.35;;;1.00;;
75087;SDS011;63664;44.868;40.600;2023-07-16T14:37:41;1.75;;;1.27;;
75087;SDS011;63664;44.868;40.600;2023-07-16T14:40:13;1.25;;;0.70;;
75087;SDS011;63664;44.868;40.600;2023-07-16T14:42:39;3.72;;;0.90;;
75087;SDS011;63664;44.868;40.600;2023-07-16T14:45:07;1.30;;;0.90;;
75087;SDS011;63664;44.868;40.600;2023-07-16T14:47:34;1.55;;;1.17;;
75087;SDS011;63664;44.868;40.600;2023-07-16T14:50:00;1.73;;;1.05;;
75087;SDS011;63664;44.868;40.600;2023-07-16T14:52:26;1.92;;;0.95;;
75087;SDS011;63664;44.868;40.600;2023-07-16T14:54:52;1.92;;;0.93;;
75087;SDS011;63664;44.868;40.600;2023-07-16T14:57:19;1.55;;;0.90;;
75087;SDS011;63664;44.868;40.600;2023-07-16T14:59:46;1.92;;;1.20;;
75087;SDS011;63664;44.868;40.600;2023-07-16T15:02:15;2.70;;;1.33;;